createdAt,value
2022-11-20T00:01:30.943Z,16.48
2022-11-20T00:03:59.077Z,16.30
2022-11-20T00:06:26.810Z,15.00
2022-11-20T00:08:56.102Z,14.23
2022-11-20T00:11:24.571Z,13.93
2022-11-20T00:13:53.163Z,14.20
2022-11-20T00:16:21.780Z,14.60
2022-11-20T00:18:49.157Z,18.98
2022-11-20T00:21:23.278Z,15.40
2022-11-20T00:23:51.512Z,15.00
2022-11-20T00:26:20.212Z,14.73
2022-11-20T00:28:51.966Z,13.48
2022-11-20T00:31:19.688Z,12.68
2022-11-20T00:33:47.597Z,15.18
2022-11-20T00:36:19.171Z,13.25
2022-11-20T00:38:46.933Z,13.95
2022-11-20T00:41:15.421Z,14.48
2022-11-20T00:43:42.901Z,15.05
2022-11-20T00:46:11.753Z,18.85
2022-11-20T00:48:39.067Z,15.23
2022-11-20T00:51:06.622Z,13.87
2022-11-20T00:53:33.918Z,16.08
2022-11-20T00:56:02.763Z,13.27
2022-11-20T00:58:31.423Z,13.27
2022-11-20T01:01:03.140Z,16.48
2022-11-20T01:03:33.167Z,16.08
2022-11-20T01:06:03.997Z,14.30
2022-11-20T01:08:32.649Z,13.35
2022-11-20T01:11:07.523Z,14.88
2022-11-20T01:13:41.360Z,15.45
2022-11-20T01:16:11.758Z,17.55
2022-11-20T01:18:40.003Z,16.75
2022-11-20T01:21:08.536Z,14.13
2022-11-20T01:23:36.680Z,13.25
2022-11-20T01:26:05.382Z,16.63
2022-11-20T01:28:32.962Z,14.70
2022-11-20T01:31:00.659Z,14.68
2022-11-20T01:33:28.011Z,13.93
2022-11-20T01:35:55.524Z,12.57
2022-11-20T01:38:23.633Z,15.13
2022-11-20T01:40:57.196Z,11.93
2022-11-20T01:43:26.135Z,12.93
2022-11-20T01:45:53.429Z,13.18
2022-11-20T01:48:21.847Z,14.52
2022-11-20T01:50:49.472Z,17.10
2022-11-20T01:53:18.896Z,13.55
2022-11-20T01:55:48.743Z,12.95
2022-11-20T01:58:16.354Z,15.57
2022-11-20T02:00:43.738Z,13.48
2022-11-20T02:03:13.432Z,11.85
2022-11-20T02:05:47.356Z,11.85
2022-11-20T02:08:14.657Z,12.55
2022-11-20T02:10:41.993Z,12.05
2022-11-20T02:13:29.010Z,12.55
2022-11-20T02:15:56.502Z,13.15
2022-11-20T02:18:24.704Z,14.67
2022-11-20T02:20:55.049Z,13.10
2022-11-20T02:23:29.038Z,11.95
2022-11-20T02:25:57.008Z,12.30
2022-11-20T02:28:24.426Z,13.07
2022-11-20T02:30:51.806Z,11.93
2022-11-20T02:33:19.122Z,11.90
2022-11-20T02:35:47.900Z,10.38
2022-11-20T02:38:15.764Z,10.90
2022-11-20T02:40:43.168Z,13.57
2022-11-20T02:43:10.853Z,14.15
2022-11-20T02:45:38.606Z,14.27
2022-11-20T02:48:07.419Z,13.90
2022-11-20T02:50:34.775Z,14.40
2022-11-20T02:53:02.079Z,15.60
2022-11-20T02:55:29.362Z,13.88
2022-11-20T02:57:56.842Z,13.75
2022-11-20T03:00:24.134Z,13.18
2022-11-20T03:02:51.414Z,13.93
2022-11-20T03:05:18.681Z,13.93
2022-11-20T03:07:46.056Z,13.73
2022-11-20T03:10:13.366Z,13.73
2022-11-20T03:12:40.656Z,12.00
2022-11-20T03:15:08.364Z,14.00
2022-11-20T03:17:35.941Z,13.32
2022-11-20T03:20:03.267Z,12.03
2022-11-20T03:22:31.204Z,13.90
2022-11-20T03:24:58.485Z,12.98
2022-11-20T03:27:25.755Z,13.38
2022-11-20T03:29:53.022Z,13.63
2022-11-20T03:32:20.305Z,13.63
2022-11-20T03:34:47.583Z,14.45
2022-11-20T03:37:14.904Z,13.32
2022-11-20T03:39:42.609Z,13.02
2022-11-20T03:42:30.287Z,13.93
2022-11-20T03:44:57.544Z,11.83
2022-11-20T03:47:25.169Z,14.32
2022-11-20T03:49:52.483Z,13.98
2022-11-20T03:52:19.794Z,12.90
2022-11-20T03:54:47.087Z,14.65
2022-11-20T03:57:14.393Z,14.43
2022-11-20T03:59:41.745Z,12.98
2022-11-20T04:02:09.111Z,14.35
2022-11-20T04:04:36.396Z,12.40
2022-11-20T04:07:03.941Z,15.30
2022-11-20T04:09:31.256Z,13.67
2022-11-20T04:11:58.564Z,14.60
2022-11-20T04:14:25.877Z,13.70
2022-11-20T04:16:53.240Z,14.55
2022-11-20T04:19:20.982Z,13.32
2022-11-20T04:21:48.567Z,13.47
2022-11-20T04:24:16.000Z,14.02
2022-11-20T04:26:43.596Z,14.18
2022-11-20T04:29:12.865Z,16.92
2022-11-20T04:31:40.142Z,13.20
2022-11-20T04:34:08.412Z,16.07
2022-11-20T04:36:36.112Z,15.43
2022-11-20T04:39:05.129Z,15.05
2022-11-20T04:41:34.073Z,14.63
2022-11-20T04:44:04.220Z,12.23
2022-11-20T04:46:33.227Z,14.68
2022-11-20T04:49:00.624Z,14.80
2022-11-20T04:51:28.441Z,14.40
2022-11-20T04:53:55.741Z,15.93
2022-11-20T04:56:23.388Z,16.33
2022-11-20T04:58:50.664Z,13.53
2022-11-20T05:01:19.726Z,16.63
2022-11-20T05:03:47.092Z,15.55
2022-11-20T05:06:15.369Z,14.68
2022-11-20T05:08:42.833Z,15.98
2022-11-20T05:11:11.546Z,15.05
2022-11-20T05:13:39.180Z,13.40
2022-11-20T05:16:07.655Z,14.20
2022-11-20T05:18:35.785Z,17.52
2022-11-20T05:21:03.080Z,12.98
2022-11-20T05:23:31.274Z,15.00
2022-11-20T05:25:59.664Z,15.45
2022-11-20T05:28:28.300Z,14.18
2022-11-20T05:30:55.583Z,15.15
2022-11-20T05:33:23.212Z,13.23
2022-11-20T05:35:50.581Z,16.17
2022-11-20T05:38:17.949Z,16.15
2022-11-20T05:40:45.313Z,13.32
2022-11-20T05:43:12.618Z,15.93
2022-11-20T05:45:39.914Z,16.08
2022-11-20T05:48:07.166Z,13.40
2022-11-20T05:50:34.465Z,15.20
2022-11-20T05:53:02.050Z,14.95
2022-11-20T05:55:29.594Z,15.18
2022-11-20T05:57:56.873Z,15.38
2022-11-20T06:00:24.373Z,16.00
2022-11-20T06:02:51.678Z,16.08
2022-11-20T06:05:19.082Z,16.05
2022-11-20T06:07:46.359Z,15.15
2022-11-20T06:10:13.709Z,17.02
2022-11-20T06:12:40.985Z,14.17
2022-11-20T06:15:08.602Z,14.88
2022-11-20T06:17:35.892Z,15.23
2022-11-20T06:20:03.414Z,14.55
2022-11-20T06:22:30.697Z,16.45
2022-11-20T06:24:57.961Z,13.60
2022-11-20T06:27:25.195Z,16.65
2022-11-20T06:29:52.489Z,17.02
2022-11-20T06:32:19.747Z,14.63
2022-11-20T06:34:47.046Z,15.25
2022-11-20T06:37:14.458Z,16.23
2022-11-20T06:39:41.779Z,16.63
2022-11-20T06:42:09.065Z,15.68
2022-11-20T06:44:36.381Z,15.30
2022-11-20T06:47:03.639Z,14.20
2022-11-20T06:49:31.514Z,15.60
2022-11-20T06:51:58.785Z,17.98
2022-11-20T06:54:26.499Z,14.20
2022-11-20T06:56:53.786Z,15.63
2022-11-20T06:59:21.270Z,16.35
2022-11-20T07:01:48.765Z,15.90
2022-11-20T07:04:16.227Z,16.55
2022-11-20T07:06:43.537Z,16.17
2022-11-20T07:09:12.834Z,14.85
2022-11-20T07:11:40.355Z,17.05
2022-11-20T07:14:07.647Z,16.17
2022-11-20T07:16:34.992Z,15.68
2022-11-20T07:19:02.253Z,18.38
2022-11-20T07:21:29.566Z,16.13
2022-11-20T07:23:56.911Z,16.33
2022-11-20T07:26:24.239Z,17.70
2022-11-20T07:28:51.508Z,17.05
2022-11-20T07:31:19.811Z,17.67
2022-11-20T07:33:47.597Z,15.50
2022-11-20T07:36:15.083Z,17.85
2022-11-20T07:38:42.386Z,15.07
2022-11-20T07:41:09.633Z,18.20
2022-11-20T07:43:40.979Z,14.95
2022-11-20T07:46:08.806Z,13.68
2022-11-20T07:48:36.020Z,21.48
2022-11-20T07:51:03.464Z,16.57
2022-11-20T07:53:30.714Z,17.02
2022-11-20T07:56:01.230Z,15.57
2022-11-20T07:58:30.433Z,14.57
2022-11-20T08:00:58.019Z,14.13
2022-11-20T08:03:25.803Z,15.65
2022-11-20T08:05:53.556Z,18.52
2022-11-20T08:08:21.220Z,17.33
2022-11-20T08:10:48.484Z,16.25
2022-11-20T08:13:34.633Z,16.02
2022-11-20T08:16:02.185Z,15.40
2022-11-20T08:18:31.748Z,14.70
2022-11-20T08:20:59.925Z,17.25
2022-11-20T08:23:27.300Z,17.45
2022-11-20T08:25:54.646Z,17.83
2022-11-20T08:28:22.710Z,19.98
2022-11-20T08:30:51.157Z,16.85
2022-11-20T08:33:19.052Z,15.38
2022-11-20T08:35:46.667Z,16.98
2022-11-20T08:38:13.940Z,17.88
2022-11-20T08:40:41.257Z,17.83
2022-11-20T08:43:08.591Z,19.60
2022-11-20T08:45:35.858Z,17.73
2022-11-20T08:48:04.441Z,17.67
2022-11-20T08:50:33.122Z,16.50
2022-11-20T08:53:04.596Z,19.50
2022-11-20T08:55:32.096Z,18.40
2022-11-20T08:57:59.409Z,19.60
2022-11-20T09:00:27.105Z,16.52
2022-11-20T09:02:54.451Z,18.65
2022-11-20T09:05:21.848Z,18.23
2022-11-20T09:07:49.157Z,17.85
2022-11-20T09:10:24.126Z,19.48
2022-11-20T09:12:52.946Z,16.60
2022-11-20T09:15:20.710Z,19.60
2022-11-20T09:17:54.103Z,17.70
2022-11-20T09:20:21.858Z,17.45
2022-11-20T09:22:49.672Z,21.42
2022-11-20T09:25:17.060Z,18.50
2022-11-20T09:27:46.761Z,17.27
2022-11-20T09:30:17.163Z,17.27
2022-11-20T09:32:44.632Z,16.70
2022-11-20T09:35:12.808Z,17.67
2022-11-20T09:37:40.157Z,17.00
2022-11-20T09:40:18.629Z,15.80
2022-11-20T09:43:09.224Z,16.63
2022-11-20T09:45:55.209Z,17.73
2022-11-20T09:48:41.411Z,21.85
2022-11-20T09:51:28.282Z,16.38
2022-11-20T09:54:14.276Z,16.45
2022-11-20T09:56:44.013Z,16.13
2022-11-20T09:59:20.568Z,17.33
2022-11-20T10:01:48.301Z,19.10
2022-11-20T10:04:18.570Z,17.42
2022-11-20T10:07:30.676Z,17.90
2022-11-20T10:09:54.128Z,19.95
2022-11-20T10:12:26.836Z,20.52
2022-11-20T10:15:00.724Z,19.63
2022-11-20T10:17:53.467Z,15.57
2022-11-20T10:20:30.042Z,21.08
2022-11-20T10:23:09.621Z,19.50
2022-11-20T10:25:41.814Z,20.33
2022-11-20T10:28:15.244Z,19.55
2022-11-20T10:30:44.512Z,17.95
2022-11-20T10:33:20.522Z,18.67
2022-11-20T10:35:53.993Z,22.95
2022-11-20T10:38:31.972Z,18.95
2022-11-20T10:41:21.224Z,21.00
2022-11-20T10:43:49.721Z,21.63
2022-11-20T10:46:23.220Z,21.02
2022-11-20T10:48:50.574Z,23.63
2022-11-20T10:51:40.056Z,23.48
2022-11-20T10:54:23.096Z,22.88
2022-11-20T10:56:54.422Z,21.88
2022-11-20T10:59:27.747Z,20.67
2022-11-20T11:01:55.064Z,21.65
2022-11-20T11:04:45.629Z,24.63
2022-11-20T11:07:33.269Z,20.70
2022-11-20T11:10:00.636Z,22.02
2022-11-20T11:12:29.165Z,24.15
2022-11-20T11:14:57.599Z,24.17
2022-11-20T11:17:25.056Z,24.45
2022-11-20T11:20:04.608Z,26.45
2022-11-20T11:22:33.181Z,23.67
2022-11-20T11:25:00.567Z,23.98
2022-11-20T11:27:27.919Z,24.98
2022-11-20T11:30:13.536Z,30.92
2022-11-20T11:32:40.869Z,28.70
2022-11-20T11:35:19.637Z,26.23
2022-11-20T11:37:48.123Z,25.98
2022-11-20T11:40:23.890Z,26.67
2022-11-20T11:42:56.731Z,31.92
2022-11-20T11:45:24.115Z,27.80
2022-11-20T11:47:52.755Z,26.58
2022-11-20T11:50:26.999Z,24.60
2022-11-20T11:53:07.498Z,27.40
2022-11-20T11:55:53.658Z,29.27
2022-11-20T11:58:36.222Z,28.35
2022-11-20T12:01:22.409Z,28.25
2022-11-20T12:04:08.525Z,29.38
2022-11-20T12:06:38.506Z,31.20
2022-11-20T12:09:11.879Z,33.38
2022-11-20T12:11:41.980Z,28.38
2022-11-20T12:14:32.588Z,31.77
2022-11-20T12:16:59.910Z,30.92
2022-11-20T12:19:29.504Z,32.57
2022-11-20T12:22:20.656Z,35.35
2022-11-20T12:24:58.488Z,37.38
2022-11-20T12:27:31.525Z,36.60
2022-11-20T12:30:09.400Z,38.05
2022-11-20T12:32:55.252Z,36.92
2022-11-20T12:35:31.571Z,39.28
2022-11-20T12:38:17.436Z,34.35
2022-11-20T12:40:47.815Z,35.80
2022-11-20T12:43:41.437Z,33.05
2022-11-20T12:46:08.692Z,29.33
2022-11-20T12:48:55.239Z,37.55
2022-11-20T12:51:41.451Z,35.40
2022-11-20T12:54:19.903Z,33.65
2022-11-20T12:56:59.459Z,35.47
2022-11-20T12:59:39.108Z,35.15
2022-11-20T13:02:45.204Z,36.20
2022-11-20T13:05:30.999Z,32.80
2022-11-20T13:07:58.407Z,34.60
2022-11-20T13:10:32.111Z,32.15
2022-11-20T13:13:03.615Z,33.13
2022-11-20T13:15:49.562Z,32.50
2022-11-20T13:18:17.077Z,36.13
2022-11-20T13:20:45.405Z,31.08
2022-11-20T13:23:12.855Z,32.90
2022-11-20T13:25:41.006Z,33.95
2022-11-20T13:28:11.086Z,34.60
2022-11-20T13:30:39.093Z,36.55
2022-11-20T13:33:24.174Z,33.92
2022-11-20T13:36:00.657Z,37.53
2022-11-20T13:38:33.718Z,38.17
2022-11-20T13:41:23.593Z,30.38
2022-11-20T13:43:51.132Z,37.58
2022-11-20T13:46:25.251Z,35.95
2022-11-20T13:48:54.563Z,37.45
2022-11-20T13:51:28.146Z,40.67
2022-11-20T13:53:58.623Z,37.53
2022-11-20T13:56:29.782Z,38.03
2022-11-20T13:59:15.707Z,40.10
2022-11-20T14:01:44.597Z,38.58
2022-11-20T14:04:15.555Z,35.40
2022-11-20T14:06:44.001Z,31.20
2022-11-20T14:09:14.904Z,35.00
2022-11-20T14:11:49.028Z,36.35
2022-11-20T14:14:20.931Z,41.78
2022-11-20T14:16:49.148Z,38.33
2022-11-20T14:19:19.572Z,38.22
2022-11-20T14:21:50.946Z,41.35
2022-11-20T14:24:22.490Z,38.05
2022-11-20T14:26:50.831Z,39.65
2022-11-20T14:29:19.428Z,38.20
2022-11-20T14:31:52.710Z,34.35
2022-11-20T14:34:25.888Z,40.17
2022-11-20T14:36:55.475Z,39.03
2022-11-20T14:39:23.359Z,41.45
2022-11-20T14:41:54.199Z,38.60
2022-11-20T14:44:29.633Z,37.30
2022-11-20T14:46:57.142Z,36.33
2022-11-20T14:49:24.589Z,32.92
2022-11-20T14:52:00.956Z,39.47
2022-11-20T14:54:29.390Z,41.83
2022-11-20T14:56:57.603Z,40.22
2022-11-20T14:59:25.834Z,38.40
2022-11-20T15:01:57.327Z,43.70
2022-11-20T15:04:24.802Z,41.22
2022-11-20T15:06:53.284Z,42.03
2022-11-20T15:09:20.608Z,39.78
2022-11-20T15:11:56.444Z,42.13
2022-11-20T15:14:24.507Z,41.28
2022-11-20T15:16:52.491Z,40.08
2022-11-20T15:19:26.723Z,42.88
2022-11-20T15:21:54.260Z,39.15
2022-11-20T15:24:22.224Z,41.03
2022-11-20T15:26:49.791Z,38.92
2022-11-20T15:29:19.787Z,40.22
2022-11-20T15:31:47.449Z,40.45
2022-11-20T15:34:15.968Z,37.95
2022-11-20T15:36:43.718Z,34.42
2022-11-20T15:39:12.509Z,40.00
2022-11-20T15:41:40.235Z,35.75
2022-11-20T15:44:07.599Z,37.33
2022-11-20T15:46:41.094Z,33.88
2022-11-20T15:49:12.556Z,35.70
2022-11-20T15:51:40.588Z,32.33
2022-11-20T15:54:22.123Z,34.75
2022-11-20T15:56:50.653Z,35.42
2022-11-20T15:59:18.020Z,30.30
2022-11-20T16:01:45.423Z,30.17
2022-11-20T16:04:13.771Z,30.80
2022-11-20T16:06:41.445Z,31.80
2022-11-20T16:09:08.952Z,33.08
2022-11-20T16:11:37.591Z,30.92
2022-11-20T16:14:24.570Z,33.58
2022-11-20T16:16:52.310Z,28.85
2022-11-20T16:19:19.720Z,25.60
2022-11-20T16:21:47.092Z,27.98
2022-11-20T16:24:15.369Z,27.83
2022-11-20T16:26:42.951Z,29.65
2022-11-20T16:29:11.037Z,26.60
2022-11-20T16:31:38.855Z,28.05
2022-11-20T16:34:12.013Z,26.02
2022-11-20T16:36:43.457Z,28.05
2022-11-20T16:39:11.006Z,29.58
2022-11-20T16:41:38.316Z,29.65
2022-11-20T16:44:09.641Z,25.05
2022-11-20T16:46:37.010Z,25.65
2022-11-20T16:49:06.062Z,29.50
2022-11-20T16:51:35.648Z,26.92
2022-11-20T16:54:03.786Z,26.73
2022-11-20T16:56:31.073Z,43.70
2022-11-20T16:58:59.123Z,37.55
2022-11-20T17:01:28.565Z,33.45
2022-11-20T17:04:00.226Z,34.03
2022-11-20T17:06:28.613Z,40.17
2022-11-20T17:08:56.569Z,40.40
2022-11-20T17:11:27.473Z,36.67
2022-11-20T17:14:00.445Z,29.55
2022-11-20T17:16:27.800Z,25.98
2022-11-20T17:19:02.260Z,23.60
2022-11-20T17:21:30.506Z,23.88
2022-11-20T17:24:01.130Z,23.45
2022-11-20T17:26:28.855Z,21.50
2022-11-20T17:28:56.147Z,22.17
2022-11-20T17:31:23.503Z,23.63
2022-11-20T17:33:50.848Z,25.02
2022-11-20T17:36:18.777Z,24.27
2022-11-20T17:38:46.316Z,21.17
2022-11-20T17:41:17.794Z,24.13
2022-11-20T17:43:45.227Z,26.02
2022-11-20T17:46:12.568Z,21.90
2022-11-20T17:48:43.285Z,22.15
2022-11-20T17:51:12.452Z,26.08
2022-11-20T17:53:41.353Z,23.15
2022-11-20T17:56:27.527Z,23.42
2022-11-20T17:58:54.880Z,25.83
2022-11-20T18:01:22.558Z,25.63
2022-11-20T18:03:50.345Z,26.27
2022-11-20T18:06:21.899Z,22.40
2022-11-20T18:08:50.029Z,21.23
2022-11-20T18:11:18.837Z,23.23
2022-11-20T18:14:05.713Z,23.20
2022-11-20T18:16:34.164Z,23.38
2022-11-20T18:19:01.740Z,24.08
2022-11-20T18:21:30.580Z,23.15
2022-11-20T18:23:58.265Z,24.38
2022-11-20T18:26:26.005Z,23.20
2022-11-20T18:28:53.702Z,26.33
2022-11-20T18:31:21.949Z,21.02
2022-11-20T18:33:49.320Z,21.05
2022-11-20T18:36:18.544Z,29.98
2022-11-20T18:38:46.673Z,26.38
2022-11-20T18:41:33.369Z,24.63
2022-11-20T18:44:20.680Z,27.45
2022-11-20T18:46:48.387Z,27.88
2022-11-20T18:49:16.078Z,28.90
2022-11-20T18:51:46.506Z,27.58
2022-11-20T18:54:14.333Z,28.77
2022-11-20T18:56:41.627Z,25.77
2022-11-20T18:59:10.053Z,28.08
2022-11-20T19:01:38.129Z,28.10
2022-11-20T19:04:08.899Z,29.50
2022-11-20T19:06:36.830Z,34.75
2022-11-20T19:09:08.960Z,28.40
2022-11-20T19:11:37.006Z,26.23
2022-11-20T19:14:04.688Z,25.80
2022-11-20T19:16:32.229Z,28.27
2022-11-20T19:19:03.870Z,24.90
2022-11-20T19:21:31.201Z,26.52
2022-11-20T19:23:59.300Z,26.75
2022-11-20T19:26:26.742Z,26.13
2022-11-20T19:28:54.582Z,28.27
2022-11-20T19:31:24.805Z,27.33
2022-11-20T19:33:56.589Z,27.27
2022-11-20T19:36:25.432Z,26.67
2022-11-20T19:38:53.593Z,25.40
2022-11-20T19:41:22.647Z,26.38
2022-11-20T19:43:50.101Z,27.33
2022-11-20T19:46:18.860Z,25.70
2022-11-20T19:48:46.253Z,27.95
2022-11-20T19:51:18.117Z,26.45
2022-11-20T19:53:45.712Z,28.17
2022-11-20T19:56:13.069Z,25.45
2022-11-20T19:58:40.434Z,26.48
2022-11-20T20:01:07.769Z,24.00
2022-11-20T20:03:35.159Z,27.08
2022-11-20T20:06:06.771Z,26.65
2022-11-20T20:08:34.075Z,27.15
2022-11-20T20:11:01.445Z,28.70
2022-11-20T20:13:28.905Z,29.00
2022-11-20T20:15:56.916Z,23.45
2022-11-20T20:18:24.176Z,24.98
2022-11-20T20:20:51.517Z,24.65
2022-11-20T20:23:18.815Z,26.77
2022-11-20T20:25:49.090Z,25.33
2022-11-20T20:28:16.526Z,25.10
2022-11-20T20:30:43.862Z,27.17
2022-11-20T20:33:11.197Z,26.05
2022-11-20T20:35:43.145Z,26.65
2022-11-20T20:38:10.514Z,27.65
2022-11-20T20:40:37.944Z,24.67
2022-11-20T20:43:05.553Z,24.65
2022-11-20T20:45:32.843Z,26.05
2022-11-20T20:48:00.212Z,22.70
2022-11-20T20:50:27.654Z,27.23
2022-11-20T20:52:55.338Z,38.72
2022-11-20T20:55:22.671Z,30.77
2022-11-20T20:57:49.939Z,24.85
2022-11-20T21:00:17.434Z,23.58
2022-11-20T21:02:44.757Z,26.00
2022-11-20T21:05:12.419Z,23.67
2022-11-20T21:07:59.634Z,24.88
2022-11-20T21:10:26.979Z,24.52
2022-11-20T21:12:54.214Z,26.20
2022-11-20T21:15:21.510Z,26.73
2022-11-20T21:17:48.855Z,26.10
2022-11-20T21:20:35.311Z,24.92
2022-11-20T21:23:08.638Z,26.30
2022-11-20T21:25:37.136Z,24.35
2022-11-20T21:28:04.412Z,25.75
2022-11-20T21:30:31.738Z,26.02
2022-11-20T21:32:59.055Z,26.70
2022-11-20T21:35:26.344Z,27.58
2022-11-20T21:37:53.645Z,26.38
2022-11-20T21:40:21.029Z,27.98
2022-11-20T21:42:48.299Z,26.65
2022-11-20T21:45:15.601Z,29.58
2022-11-20T21:47:42.847Z,27.17
2022-11-20T21:50:10.263Z,27.60
2022-11-20T21:52:37.563Z,27.80
2022-11-20T21:55:05.010Z,29.85
2022-11-20T21:57:34.647Z,27.83
2022-11-20T22:00:02.303Z,27.63
2022-11-20T22:02:39.286Z,24.40
2022-11-20T22:05:07.231Z,27.35
2022-11-20T22:07:35.376Z,26.35
2022-11-20T22:10:02.814Z,28.90
2022-11-20T22:12:30.069Z,28.25
2022-11-20T22:14:57.312Z,28.83
2022-11-20T22:17:44.534Z,27.45
2022-11-20T22:20:11.982Z,28.55
2022-11-20T22:22:40.903Z,30.92
2022-11-20T22:25:08.429Z,27.60
2022-11-20T22:27:35.721Z,29.75
2022-11-20T22:30:02.998Z,29.88
2022-11-20T22:32:30.330Z,27.63
2022-11-20T22:34:57.665Z,29.23
2022-11-20T22:37:25.148Z,28.80
2022-11-20T22:39:52.476Z,32.63
2022-11-20T22:42:19.819Z,30.67
2022-11-20T22:44:47.126Z,31.17
2022-11-20T22:47:14.410Z,29.10
2022-11-20T22:49:41.793Z,30.55
2022-11-20T22:52:09.078Z,29.63
2022-11-20T22:54:36.374Z,29.05
2022-11-20T22:57:03.686Z,29.13
2022-11-20T22:59:30.955Z,28.58
2022-11-20T23:01:58.226Z,35.25
2022-11-20T23:04:25.864Z,34.15
2022-11-20T23:06:53.380Z,33.13
2022-11-20T23:09:20.644Z,33.80
2022-11-20T23:11:47.923Z,31.83
2022-11-20T23:14:15.814Z,30.73
2022-11-20T23:16:43.338Z,30.63
2022-11-20T23:19:11.730Z,35.80
2022-11-20T23:21:39.977Z,32.88
2022-11-20T23:24:07.428Z,32.90
2022-11-20T23:26:37.689Z,33.20
2022-11-20T23:29:05.725Z,33.17
2022-11-20T23:31:34.006Z,33.92
2022-11-20T23:34:01.405Z,36.25
2022-11-20T23:36:28.818Z,35.45
2022-11-20T23:38:56.108Z,35.33
2022-11-20T23:41:23.470Z,36.00
2022-11-20T23:43:50.794Z,36.42
2022-11-20T23:46:18.080Z,34.58
2022-11-20T23:48:45.827Z,33.78
2022-11-20T23:51:13.540Z,36.35
2022-11-20T23:53:40.877Z,37.00
2022-11-20T23:56:08.262Z,37.13
2022-11-20T23:58:39.567Z,37.80
